sensor_id;sensor_type;location;lat;lon;timestamp;P1;durP1;ratioP1;P2;durP2;ratioP2
81039;SDS011;70525;53.224;8.782;2023-06-14T00:02:20;5.18;;;1.60;;
81039;SDS011;70525;53.224;8.782;2023-06-14T00:04:47;3.45;;;1.50;;
81039;SDS011;70525;53.224;8.782;2023-06-14T00:07:14;2.50;;;1.45;;
81039;SDS011;70525;53.224;8.782;2023-06-14T00:09:42;2.95;;;1.67;;
81039;SDS011;70525;53.224;8.782;2023-06-14T00:12:09;4.78;;;1.85;;
81039;SDS011;70525;53.224;8.782;2023-06-14T00:14:35;4.30;;;1.90;;
81039;SDS011;70525;53.224;8.782;2023-06-14T00:17:02;6.15;;;2.97;;
81039;SDS011;70525;53.224;8.782;2023-06-14T00:19:29;3.20;;;1.48;;
81039;SDS011;70525;53.224;8.782;2023-06-14T00:21:59;4.15;;;1.70;;
81039;SDS011;70525;53.224;8.782;2023-06-14T00:24:25;3.38;;;2.05;;
81039;SDS011;70525;53.224;8.782;2023-06-14T00:26:52;3.67;;;1.63;;
81039;SDS011;70525;53.224;8.782;2023-06-14T00:29:18;2.85;;;1.48;;
81039;SDS011;70525;53.224;8.782;2023-06-14T00:31:45;3.53;;;1.40;;
81039;SDS011;70525;53.224;8.782;2023-06-14T00:34:11;3.83;;;1.67;;
81039;SDS011;70525;53.224;8.782;2023-06-14T00:36:38;4.03;;;1.98;;
81039;SDS011;70525;53.224;8.782;2023-06-14T00:39:04;3.47;;;1.70;;
81039;SDS011;70525;53.224;8.782;2023-06-14T00:41:31;5.07;;;1.80;;
81039;SDS011;70525;53.224;8.782;2023-06-14T00:43:57;5.50;;;2.30;;
81039;SDS011;70525;53.224;8.782;2023-06-14T00:46:24;4.05;;;1.55;;
81039;SDS011;70525;53.224;8.782;2023-06-14T00:48:51;3.60;;;1.70;;
81039;SDS011;70525;53.224;8.782;2023-06-14T00:51:18;2.88;;;1.70;;
81039;SDS011;70525;53.224;8.782;2023-06-14T00:53:44;3.58;;;2.08;;
81039;SDS011;70525;53.224;8.782;2023-06-14T00:56:14;3.67;;;2.10;;
81039;SDS011;70525;53.224;8.782;2023-06-14T00:58:41;3.25;;;2.10;;
81039;SDS011;70525;53.224;8.782;2023-06-14T01:01:08;4.38;;;1.92;;
81039;SDS011;70525;53.224;8.782;2023-06-14T01:03:34;3.25;;;1.75;;
81039;SDS011;70525;53.224;8.782;2023-06-14T01:06:14;5.65;;;2.95;;
81039;SDS011;70525;53.224;8.782;2023-06-14T01:12:07;2.40;;;1.65;;
81039;SDS011;70525;53.224;8.782;2023-06-14T01:14:38;6.03;;;2.13;;
81039;SDS011;70525;53.224;8.782;2023-06-14T01:17:05;3.55;;;1.90;;
81039;SDS011;70525;53.224;8.782;2023-06-14T01:19:32;5.22;;;1.80;;
81039;SDS011;70525;53.224;8.782;2023-06-14T01:22:00;3.95;;;1.90;;
81039;SDS011;70525;53.224;8.782;2023-06-14T01:24:27;3.85;;;2.03;;
81039;SDS011;70525;53.224;8.782;2023-06-14T01:26:58;4.28;;;1.90;;
81039;SDS011;70525;53.224;8.782;2023-06-14T01:29:25;5.78;;;1.92;;
81039;SDS011;70525;53.224;8.782;2023-06-14T01:31:54;7.15;;;1.98;;
81039;SDS011;70525;53.224;8.782;2023-06-14T01:34:20;3.55;;;2.00;;
81039;SDS011;70525;53.224;8.782;2023-06-14T01:36:47;5.47;;;2.13;;
81039;SDS011;70525;53.224;8.782;2023-06-14T01:39:14;5.22;;;2.10;;
81039;SDS011;70525;53.224;8.782;2023-06-14T01:41:42;3.63;;;2.00;;
81039;SDS011;70525;53.224;8.782;2023-06-14T01:44:09;4.60;;;1.80;;
81039;SDS011;70525;53.224;8.782;2023-06-14T01:46:36;4.45;;;1.88;;
81039;SDS011;70525;53.224;8.782;2023-06-14T01:49:03;8.63;;;3.17;;
81039;SDS011;70525;53.224;8.782;2023-06-14T01:51:29;4.50;;;2.20;;
81039;SDS011;70525;53.224;8.782;2023-06-14T01:53:56;5.28;;;2.17;;
81039;SDS011;70525;53.224;8.782;2023-06-14T01:56:23;5.97;;;2.10;;
81039;SDS011;70525;53.224;8.782;2023-06-14T01:58:50;4.82;;;2.00;;
81039;SDS011;70525;53.224;8.782;2023-06-14T02:01:17;4.88;;;2.85;;
81039;SDS011;70525;53.224;8.782;2023-06-14T02:03:45;6.80;;;2.20;;
81039;SDS011;70525;53.224;8.782;2023-06-14T02:06:12;4.45;;;2.03;;
81039;SDS011;70525;53.224;8.782;2023-06-14T02:08:39;4.40;;;2.40;;
81039;SDS011;70525;53.224;8.782;2023-06-14T02:11:06;3.35;;;2.28;;
81039;SDS011;70525;53.224;8.782;2023-06-14T02:13:33;6.47;;;1.90;;
81039;SDS011;70525;53.224;8.782;2023-06-14T02:16:00;4.80;;;2.10;;
81039;SDS011;70525;53.224;8.782;2023-06-14T02:18:27;4.38;;;2.20;;
81039;SDS011;70525;53.224;8.782;2023-06-14T02:20:54;3.45;;;2.17;;
81039;SDS011;70525;53.224;8.782;2023-06-14T02:23:20;3.63;;;2.53;;
81039;SDS011;70525;53.224;8.782;2023-06-14T02:25:47;3.83;;;2.15;;
81039;SDS011;70525;53.224;8.782;2023-06-14T02:28:13;3.72;;;2.55;;
81039;SDS011;70525;53.224;8.782;2023-06-14T02:30:40;6.05;;;2.00;;
81039;SDS011;70525;53.224;8.782;2023-06-14T02:33:07;5.93;;;2.35;;
81039;SDS011;70525;53.224;8.782;2023-06-14T02:35:33;5.28;;;2.50;;
81039;SDS011;70525;53.224;8.782;2023-06-14T02:38:00;4.72;;;2.45;;
81039;SDS011;70525;53.224;8.782;2023-06-14T02:40:26;5.57;;;2.20;;
81039;SDS011;70525;53.224;8.782;2023-06-14T02:42:53;4.07;;;2.00;;
81039;SDS011;70525;53.224;8.782;2023-06-14T02:45:19;3.55;;;2.38;;
81039;SDS011;70525;53.224;8.782;2023-06-14T02:47:47;3.75;;;2.13;;
81039;SDS011;70525;53.224;8.782;2023-06-14T02:50:13;4.93;;;2.50;;
81039;SDS011;70525;53.224;8.782;2023-06-14T02:52:40;6.05;;;2.30;;
81039;SDS011;70525;53.224;8.782;2023-06-14T02:55:10;4.47;;;2.40;;
81039;SDS011;70525;53.224;8.782;2023-06-14T02:57:37;4.95;;;2.10;;
81039;SDS011;70525;53.224;8.782;2023-06-14T03:00:04;4.60;;;2.67;;
81039;SDS011;70525;53.224;8.782;2023-06-14T03:02:31;5.75;;;2.65;;
81039;SDS011;70525;53.224;8.782;2023-06-14T03:04:57;5.78;;;2.40;;
81039;SDS011;70525;53.224;8.782;2023-06-14T03:09:55;6.55;;;2.40;;
81039;SDS011;70525;53.224;8.782;2023-06-14T03:12:22;4.60;;;2.25;;
81039;SDS011;70525;53.224;8.782;2023-06-14T03:14:49;5.00;;;2.72;;
81039;SDS011;70525;53.224;8.782;2023-06-14T03:17:17;5.20;;;2.75;;
81039;SDS011;70525;53.224;8.782;2023-06-14T03:19:45;4.40;;;2.50;;
81039;SDS011;70525;53.224;8.782;2023-06-14T03:22:12;4.57;;;2.45;;
81039;SDS011;70525;53.224;8.782;2023-06-14T03:24:38;3.67;;;2.50;;
81039;SDS011;70525;53.224;8.782;2023-06-14T03:27:05;3.72;;;2.53;;
81039;SDS011;70525;53.224;8.782;2023-06-14T03:29:32;5.13;;;2.60;;
81039;SDS011;70525;53.224;8.782;2023-06-14T03:31:59;7.28;;;2.35;;
81039;SDS011;70525;53.224;8.782;2023-06-14T03:34:27;3.58;;;2.47;;
81039;SDS011;70525;53.224;8.782;2023-06-14T03:36:53;6.53;;;3.10;;
81039;SDS011;70525;53.224;8.782;2023-06-14T03:39:20;6.20;;;2.60;;
81039;SDS011;70525;53.224;8.782;2023-06-14T03:41:47;3.30;;;2.25;;
81039;SDS011;70525;53.224;8.782;2023-06-14T03:44:15;6.78;;;2.70;;
81039;SDS011;70525;53.224;8.782;2023-06-14T03:46:43;3.53;;;2.42;;
81039;SDS011;70525;53.224;8.782;2023-06-14T03:49:09;4.90;;;2.35;;
81039;SDS011;70525;53.224;8.782;2023-06-14T03:51:36;4.78;;;2.30;;
81039;SDS011;70525;53.224;8.782;2023-06-14T03:54:03;4.57;;;2.40;;
81039;SDS011;70525;53.224;8.782;2023-06-14T03:56:32;6.55;;;2.63;;
81039;SDS011;70525;53.224;8.782;2023-06-14T03:59:02;5.57;;;2.55;;
81039;SDS011;70525;53.224;8.782;2023-06-14T04:01:28;5.05;;;2.70;;
81039;SDS011;70525;53.224;8.782;2023-06-14T04:03:56;5.43;;;2.72;;
81039;SDS011;70525;53.224;8.782;2023-06-14T04:06:24;5.50;;;2.85;;
81039;SDS011;70525;53.224;8.782;2023-06-14T04:08:58;5.32;;;2.50;;
81039;SDS011;70525;53.224;8.782;2023-06-14T04:11:29;6.72;;;2.97;;
81039;SDS011;70525;53.224;8.782;2023-06-14T04:13:57;6.30;;;3.00;;
81039;SDS011;70525;53.224;8.782;2023-06-14T04:16:24;5.28;;;2.70;;
81039;SDS011;70525;53.224;8.782;2023-06-14T04:18:51;8.40;;;2.80;;
81039;SDS011;70525;53.224;8.782;2023-06-14T04:21:18;4.20;;;2.30;;
81039;SDS011;70525;53.224;8.782;2023-06-14T04:23:44;5.55;;;2.75;;
81039;SDS011;70525;53.224;8.782;2023-06-14T04:26:11;3.80;;;2.50;;
81039;SDS011;70525;53.224;8.782;2023-06-14T04:28:38;5.88;;;3.10;;
81039;SDS011;70525;53.224;8.782;2023-06-14T04:31:07;3.65;;;2.45;;
81039;SDS011;70525;53.224;8.782;2023-06-14T04:33:37;4.93;;;2.90;;
81039;SDS011;70525;53.224;8.782;2023-06-14T04:36:10;4.85;;;3.00;;
81039;SDS011;70525;53.224;8.782;2023-06-14T04:38:39;5.20;;;2.50;;
81039;SDS011;70525;53.224;8.782;2023-06-14T04:41:07;4.03;;;2.85;;
81039;SDS011;70525;53.224;8.782;2023-06-14T04:43:37;4.35;;;2.60;;
81039;SDS011;70525;53.224;8.782;2023-06-14T04:46:05;6.45;;;2.90;;
81039;SDS011;70525;53.224;8.782;2023-06-14T04:48:32;6.63;;;3.17;;
81039;SDS011;70525;53.224;8.782;2023-06-14T04:50:58;7.75;;;2.97;;
81039;SDS011;70525;53.224;8.782;2023-06-14T04:53:25;5.38;;;2.75;;
81039;SDS011;70525;53.224;8.782;2023-06-14T04:55:55;4.18;;;2.78;;
81039;SDS011;70525;53.224;8.782;2023-06-14T04:58:21;9.05;;;2.78;;
81039;SDS011;70525;53.224;8.782;2023-06-14T05:00:48;5.97;;;3.03;;
81039;SDS011;70525;53.224;8.782;2023-06-14T05:03:14;6.25;;;2.97;;
81039;SDS011;70525;53.224;8.782;2023-06-14T05:05:41;4.95;;;2.80;;
81039;SDS011;70525;53.224;8.782;2023-06-14T05:08:07;7.25;;;2.50;;
81039;SDS011;70525;53.224;8.782;2023-06-14T05:10:35;3.67;;;2.47;;
81039;SDS011;70525;53.224;8.782;2023-06-14T05:13:02;4.68;;;2.95;;
81039;SDS011;70525;53.224;8.782;2023-06-14T05:15:29;5.50;;;2.80;;
81039;SDS011;70525;53.224;8.782;2023-06-14T05:17:56;5.93;;;2.80;;
81039;SDS011;70525;53.224;8.782;2023-06-14T05:20:23;6.28;;;3.10;;
81039;SDS011;70525;53.224;8.782;2023-06-14T05:22:51;4.57;;;2.42;;
81039;SDS011;70525;53.224;8.782;2023-06-14T05:25:19;6.68;;;2.97;;
81039;SDS011;70525;53.224;8.782;2023-06-14T05:27:47;4.03;;;2.65;;
81039;SDS011;70525;53.224;8.782;2023-06-14T05:30:14;4.20;;;2.80;;
81039;SDS011;70525;53.224;8.782;2023-06-14T05:32:41;5.80;;;2.55;;
81039;SDS011;70525;53.224;8.782;2023-06-14T05:35:08;9.20;;;3.55;;
81039;SDS011;70525;53.224;8.782;2023-06-14T05:37:34;4.72;;;2.70;;
81039;SDS011;70525;53.224;8.782;2023-06-14T05:40:01;6.63;;;2.67;;
81039;SDS011;70525;53.224;8.782;2023-06-14T05:42:30;5.53;;;3.03;;
81039;SDS011;70525;53.224;8.782;2023-06-14T05:44:57;7.18;;;2.83;;
81039;SDS011;70525;53.224;8.782;2023-06-14T05:47:23;5.70;;;3.55;;
81039;SDS011;70525;53.224;8.782;2023-06-14T05:49:50;7.63;;;2.95;;
81039;SDS011;70525;53.224;8.782;2023-06-14T05:52:16;6.32;;;2.70;;
81039;SDS011;70525;53.224;8.782;2023-06-14T05:54:43;4.32;;;2.30;;
81039;SDS011;70525;53.224;8.782;2023-06-14T05:57:10;5.82;;;2.78;;
81039;SDS011;70525;53.224;8.782;2023-06-14T05:59:36;3.97;;;2.80;;
81039;SDS011;70525;53.224;8.782;2023-06-14T06:02:03;4.43;;;2.70;;
81039;SDS011;70525;53.224;8.782;2023-06-14T06:04:30;3.78;;;2.70;;
81039;SDS011;70525;53.224;8.782;2023-06-14T06:06:57;4.57;;;2.72;;
81039;SDS011;70525;53.224;8.782;2023-06-14T06:09:23;4.82;;;2.35;;
81039;SDS011;70525;53.224;8.782;2023-06-14T06:11:50;5.50;;;2.83;;
81039;SDS011;70525;53.224;8.782;2023-06-14T06:14:19;4.97;;;2.60;;
81039;SDS011;70525;53.224;8.782;2023-06-14T06:16:46;3.83;;;2.67;;
81039;SDS011;70525;53.224;8.782;2023-06-14T06:19:12;7.05;;;2.70;;
81039;SDS011;70525;53.224;8.782;2023-06-14T06:21:39;8.95;;;2.40;;
81039;SDS011;70525;53.224;8.782;2023-06-14T06:24:05;6.43;;;2.88;;
81039;SDS011;70525;53.224;8.782;2023-06-14T06:26:32;7.05;;;2.65;;
81039;SDS011;70525;53.224;8.782;2023-06-14T06:28:59;4.30;;;2.35;;
81039;SDS011;70525;53.224;8.782;2023-06-14T06:31:25;5.82;;;2.47;;
81039;SDS011;70525;53.224;8.782;2023-06-14T06:33:54;5.28;;;2.13;;
81039;SDS011;70525;53.224;8.782;2023-06-14T06:36:20;4.43;;;2.35;;
81039;SDS011;70525;53.224;8.782;2023-06-14T06:38:47;4.53;;;2.13;;
81039;SDS011;70525;53.224;8.782;2023-06-14T06:41:14;4.00;;;2.25;;
81039;SDS011;70525;53.224;8.782;2023-06-14T06:43:40;4.72;;;2.20;;
81039;SDS011;70525;53.224;8.782;2023-06-14T06:46:07;4.38;;;2.45;;
81039;SDS011;70525;53.224;8.782;2023-06-14T06:48:34;3.78;;;2.40;;
81039;SDS011;70525;53.224;8.782;2023-06-14T06:51:00;3.60;;;2.35;;
81039;SDS011;70525;53.224;8.782;2023-06-14T06:53:27;5.75;;;2.30;;
81039;SDS011;70525;53.224;8.782;2023-06-14T06:56:08;3.92;;;2.60;;
81039;SDS011;70525;53.224;8.782;2023-06-14T06:58:34;7.05;;;2.53;;
81039;SDS011;70525;53.224;8.782;2023-06-14T07:01:00;3.67;;;2.28;;
81039;SDS011;70525;53.224;8.782;2023-06-14T07:03:27;3.20;;;1.95;;
81039;SDS011;70525;53.224;8.782;2023-06-14T07:05:53;7.78;;;2.40;;
81039;SDS011;70525;53.224;8.782;2023-06-14T07:08:20;3.55;;;2.20;;
81039;SDS011;70525;53.224;8.782;2023-06-14T07:10:47;3.88;;;2.00;;
81039;SDS011;70525;53.224;8.782;2023-06-14T07:13:13;4.97;;;2.20;;
81039;SDS011;70525;53.224;8.782;2023-06-14T07:15:40;5.05;;;3.03;;
81039;SDS011;70525;53.224;8.782;2023-06-14T07:18:06;5.93;;;2.03;;
81039;SDS011;70525;53.224;8.782;2023-06-14T07:20:34;5.13;;;2.05;;
81039;SDS011;70525;53.224;8.782;2023-06-14T07:23:00;2.60;;;1.80;;
81039;SDS011;70525;53.224;8.782;2023-06-14T07:25:27;3.97;;;1.75;;
81039;SDS011;70525;53.224;8.782;2023-06-14T07:27:53;3.60;;;1.92;;
81039;SDS011;70525;53.224;8.782;2023-06-14T07:30:20;3.35;;;1.70;;
81039;SDS011;70525;53.224;8.782;2023-06-14T07:32:47;3.17;;;1.70;;
81039;SDS011;70525;53.224;8.782;2023-06-14T07:35:13;2.33;;;1.67;;
81039;SDS011;70525;53.224;8.782;2023-06-14T07:37:41;4.72;;;1.83;;
81039;SDS011;70525;53.224;8.782;2023-06-14T07:40:08;5.55;;;1.67;;
81039;SDS011;70525;53.224;8.782;2023-06-14T07:42:36;3.05;;;1.88;;
81039;SDS011;70525;53.224;8.782;2023-06-14T07:45:03;2.28;;;1.52;;
81039;SDS011;70525;53.224;8.782;2023-06-14T07:47:30;2.85;;;1.73;;
81039;SDS011;70525;53.224;8.782;2023-06-14T07:49:57;4.10;;;2.15;;
81039;SDS011;70525;53.224;8.782;2023-06-14T07:52:23;2.67;;;1.70;;
81039;SDS011;70525;53.224;8.782;2023-06-14T07:54:51;4.20;;;1.70;;
81039;SDS011;70525;53.224;8.782;2023-06-14T07:57:17;3.97;;;1.75;;
81039;SDS011;70525;53.224;8.782;2023-06-14T07:59:46;4.22;;;2.20;;
81039;SDS011;70525;53.224;8.782;2023-06-14T08:02:12;3.78;;;2.20;;
81039;SDS011;70525;53.224;8.782;2023-06-14T08:04:39;2.75;;;1.70;;
81039;SDS011;70525;53.224;8.782;2023-06-14T08:07:06;2.60;;;1.90;;
81039;SDS011;70525;53.224;8.782;2023-06-14T08:09:33;3.85;;;2.22;;
81039;SDS011;70525;53.224;8.782;2023-06-14T08:12:01;6.10;;;1.73;;
81039;SDS011;70525;53.224;8.782;2023-06-14T08:14:27;5.57;;;2.00;;
81039;SDS011;70525;53.224;8.782;2023-06-14T08:16:55;3.28;;;1.60;;
81039;SDS011;70525;53.224;8.782;2023-06-14T08:19:21;3.17;;;1.70;;
81039;SDS011;70525;53.224;8.782;2023-06-14T08:21:48;2.85;;;1.70;;
81039;SDS011;70525;53.224;8.782;2023-06-14T08:24:14;3.20;;;1.60;;
81039;SDS011;70525;53.224;8.782;2023-06-14T08:26:41;5.03;;;2.03;;
81039;SDS011;70525;53.224;8.782;2023-06-14T08:29:07;3.05;;;1.90;;
81039;SDS011;70525;53.224;8.782;2023-06-14T08:31:34;3.28;;;1.60;;
81039;SDS011;70525;53.224;8.782;2023-06-14T08:34:01;2.38;;;1.55;;
81039;SDS011;70525;53.224;8.782;2023-06-14T08:36:31;3.20;;;1.70;;
81039;SDS011;70525;53.224;8.782;2023-06-14T08:38:57;2.00;;;1.52;;
81039;SDS011;70525;53.224;8.782;2023-06-14T08:41:24;2.58;;;1.70;;
81039;SDS011;70525;53.224;8.782;2023-06-14T08:43:52;2.80;;;1.65;;
81039;SDS011;70525;53.224;8.782;2023-06-14T08:46:18;3.33;;;1.80;;
81039;SDS011;70525;53.224;8.782;2023-06-14T08:48:49;3.58;;;1.65;;
81039;SDS011;70525;53.224;8.782;2023-06-14T08:51:19;5.97;;;1.67;;
81039;SDS011;70525;53.224;8.782;2023-06-14T08:53:51;3.25;;;2.10;;
81039;SDS011;70525;53.224;8.782;2023-06-14T08:56:19;2.05;;;1.40;;
81039;SDS011;70525;53.224;8.782;2023-06-14T08:58:46;3.78;;;1.70;;
81039;SDS011;70525;53.224;8.782;2023-06-14T09:01:14;2.10;;;1.50;;
81039;SDS011;70525;53.224;8.782;2023-06-14T09:03:43;5.03;;;1.73;;
81039;SDS011;70525;53.224;8.782;2023-06-14T09:06:11;3.53;;;1.42;;
81039;SDS011;70525;53.224;8.782;2023-06-14T09:08:40;3.35;;;1.58;;
81039;SDS011;70525;53.224;8.782;2023-06-14T09:11:10;5.53;;;2.08;;
81039;SDS011;70525;53.224;8.782;2023-06-14T09:13:38;2.38;;;1.80;;
81039;SDS011;70525;53.224;8.782;2023-06-14T09:16:06;4.70;;;1.90;;
81039;SDS011;70525;53.224;8.782;2023-06-14T09:18:34;4.95;;;1.90;;
81039;SDS011;70525;53.224;8.782;2023-06-14T09:21:10;5.47;;;1.95;;
81039;SDS011;70525;53.224;8.782;2023-06-14T09:23:41;3.78;;;1.83;;
81039;SDS011;70525;53.224;8.782;2023-06-14T09:26:12;4.03;;;2.45;;
81039;SDS011;70525;53.224;8.782;2023-06-14T09:28:44;5.97;;;2.00;;
81039;SDS011;70525;53.224;8.782;2023-06-14T09:31:18;5.78;;;2.08;;
81039;SDS011;70525;53.224;8.782;2023-06-14T09:33:49;4.63;;;1.83;;
81039;SDS011;70525;53.224;8.782;2023-06-14T09:36:17;2.50;;;1.70;;
81039;SDS011;70525;53.224;8.782;2023-06-14T09:38:54;3.20;;;1.70;;
81039;SDS011;70525;53.224;8.782;2023-06-14T09:41:35;4.00;;;2.10;;
81039;SDS011;70525;53.224;8.782;2023-06-14T09:44:04;7.88;;;1.80;;
81039;SDS011;70525;53.224;8.782;2023-06-14T09:46:37;3.92;;;2.10;;
81039;SDS011;70525;53.224;8.782;2023-06-14T09:49:04;3.00;;;2.13;;
81039;SDS011;70525;53.224;8.782;2023-06-14T09:51:32;3.00;;;1.63;;
81039;SDS011;70525;53.224;8.782;2023-06-14T09:53:59;4.57;;;2.10;;
81039;SDS011;70525;53.224;8.782;2023-06-14T09:56:28;2.60;;;1.80;;
81039;SDS011;70525;53.224;8.782;2023-06-14T09:58:56;2.78;;;1.95;;
81039;SDS011;70525;53.224;8.782;2023-06-14T10:01:33;4.18;;;1.90;;
81039;SDS011;70525;53.224;8.782;2023-06-14T10:04:04;3.97;;;2.08;;
81039;SDS011;70525;53.224;8.782;2023-06-14T10:06:37;4.85;;;1.85;;
81039;SDS011;70525;53.224;8.782;2023-06-14T10:09:07;2.67;;;1.80;;
81039;SDS011;70525;53.224;8.782;2023-06-14T10:14:01;4.63;;;2.33;;
81039;SDS011;70525;53.224;8.782;2023-06-14T10:22:02;4.22;;;2.17;;
81039;SDS011;70525;53.224;8.782;2023-06-14T10:24:33;2.53;;;1.80;;
81039;SDS011;70525;53.224;8.782;2023-06-14T10:27:05;4.20;;;2.10;;
81039;SDS011;70525;53.224;8.782;2023-06-14T10:32:25;4.15;;;2.13;;
81039;SDS011;70525;53.224;8.782;2023-06-14T10:34:56;4.55;;;2.17;;
81039;SDS011;70525;53.224;8.782;2023-06-14T10:37:23;3.15;;;2.17;;
81039;SDS011;70525;53.224;8.782;2023-06-14T10:39:53;6.32;;;3.10;;
81039;SDS011;70525;53.224;8.782;2023-06-14T10:42:20;6.18;;;2.25;;
81039;SDS011;70525;53.224;8.782;2023-06-14T10:44:52;5.25;;;2.45;;
81039;SDS011;70525;53.224;8.782;2023-06-14T10:52:28;4.05;;;2.53;;
81039;SDS011;70525;53.224;8.782;2023-06-14T10:54:57;3.65;;;2.25;;
81039;SDS011;70525;53.224;8.782;2023-06-14T10:57:25;3.47;;;2.35;;
81039;SDS011;70525;53.224;8.782;2023-06-14T10:59:52;6.03;;;2.10;;
81039;SDS011;70525;53.224;8.782;2023-06-14T11:04:49;2.97;;;2.00;;
81039;SDS011;70525;53.224;8.782;2023-06-14T11:13:03;3.50;;;2.30;;
81039;SDS011;70525;53.224;8.782;2023-06-14T11:15:30;2.83;;;2.05;;
81039;SDS011;70525;53.224;8.782;2023-06-14T11:18:00;4.68;;;2.20;;
81039;SDS011;70525;53.224;8.782;2023-06-14T11:20:29;7.15;;;2.75;;
81039;SDS011;70525;53.224;8.782;2023-06-14T11:22:56;5.95;;;2.88;;
81039;SDS011;70525;53.224;8.782;2023-06-14T11:25:24;6.18;;;2.35;;
81039;SDS011;70525;53.224;8.782;2023-06-14T11:27:50;6.15;;;2.70;;
81039;SDS011;70525;53.224;8.782;2023-06-14T11:30:17;3.20;;;2.08;;
81039;SDS011;70525;53.224;8.782;2023-06-14T11:32:50;4.97;;;2.20;;
81039;SDS011;70525;53.224;8.782;2023-06-14T11:35:24;3.25;;;1.95;;
81039;SDS011;70525;53.224;8.782;2023-06-14T11:37:54;3.83;;;2.60;;
81039;SDS011;70525;53.224;8.782;2023-06-14T11:40:23;2.60;;;1.98;;
81039;SDS011;70525;53.224;8.782;2023-06-14T11:42:54;2.35;;;1.95;;
81039;SDS011;70525;53.224;8.782;2023-06-14T11:45:25;2.92;;;2.17;;
81039;SDS011;70525;53.224;8.782;2023-06-14T11:47:53;2.70;;;1.95;;
81039;SDS011;70525;53.224;8.782;2023-06-14T11:50:21;4.63;;;2.30;;
81039;SDS011;70525;53.224;8.782;2023-06-14T11:52:56;5.47;;;2.10;;
81039;SDS011;70525;53.224;8.782;2023-06-14T11:55:23;3.33;;;2.22;;
81039;SDS011;70525;53.224;8.782;2023-06-14T11:57:50;4.43;;;2.00;;
81039;SDS011;70525;53.224;8.782;2023-06-14T12:00:17;5.25;;;2.38;;
81039;SDS011;70525;53.224;8.782;2023-06-14T12:02:51;3.08;;;2.17;;
81039;SDS011;70525;53.224;8.782;2023-06-14T12:05:22;3.47;;;2.55;;
81039;SDS011;70525;53.224;8.782;2023-06-14T12:07:50;4.75;;;2.15;;
81039;SDS011;70525;53.224;8.782;2023-06-14T12:10:19;3.03;;;2.28;;
81039;SDS011;70525;53.224;8.782;2023-06-14T12:12:46;4.80;;;1.92;;
81039;SDS011;70525;53.224;8.782;2023-06-14T12:15:12;5.88;;;2.65;;
81039;SDS011;70525;53.224;8.782;2023-06-14T12:17:42;6.53;;;2.22;;
81039;SDS011;70525;53.224;8.782;2023-06-14T12:20:10;2.88;;;2.58;;
81039;SDS011;70525;53.224;8.782;2023-06-14T12:22:37;3.53;;;2.22;;
81039;SDS011;70525;53.224;8.782;2023-06-14T12:25:04;4.95;;;2.60;;
81039;SDS011;70525;53.224;8.782;2023-06-14T12:27:31;6.60;;;2.60;;
81039;SDS011;70525;53.224;8.782;2023-06-14T12:29:59;3.35;;;2.00;;
81039;SDS011;70525;53.224;8.782;2023-06-14T12:32:29;4.07;;;2.50;;
81039;SDS011;70525;53.224;8.782;2023-06-14T12:34:56;6.22;;;2.30;;
81039;SDS011;70525;53.224;8.782;2023-06-14T12:37:23;4.63;;;2.28;;
81039;SDS011;70525;53.224;8.782;2023-06-14T12:39:49;3.60;;;3.00;;
81039;SDS011;70525;53.224;8.782;2023-06-14T12:42:17;5.25;;;2.10;;
81039;SDS011;70525;53.224;8.782;2023-06-14T12:44:43;4.75;;;2.20;;
81039;SDS011;70525;53.224;8.782;2023-06-14T12:47:10;3.08;;;2.10;;
81039;SDS011;70525;53.224;8.782;2023-06-14T12:49:36;4.93;;;2.20;;
81039;SDS011;70525;53.224;8.782;2023-06-14T12:52:03;5.38;;;2.50;;
81039;SDS011;70525;53.224;8.782;2023-06-14T12:54:29;7.05;;;2.47;;
81039;SDS011;70525;53.224;8.782;2023-06-14T12:57:06;3.17;;;2.30;;
81039;SDS011;70525;53.224;8.782;2023-06-14T12:59:33;6.07;;;2.90;;
81039;SDS011;70525;53.224;8.782;2023-06-14T13:02:09;2.92;;;2.30;;
81039;SDS011;70525;53.224;8.782;2023-06-14T13:04:37;3.03;;;2.50;;
81039;SDS011;70525;53.224;8.782;2023-06-14T13:07:04;4.15;;;2.08;;
81039;SDS011;70525;53.224;8.782;2023-06-14T13:09:31;3.15;;;2.33;;
81039;SDS011;70525;53.224;8.782;2023-06-14T13:11:57;4.07;;;2.10;;
81039;SDS011;70525;53.224;8.782;2023-06-14T13:14:24;5.20;;;2.15;;
81039;SDS011;70525;53.224;8.782;2023-06-14T13:16:51;8.88;;;2.70;;
81039;SDS011;70525;53.224;8.782;2023-06-14T13:19:18;3.05;;;1.88;;
81039;SDS011;70525;53.224;8.782;2023-06-14T13:21:45;4.72;;;2.58;;
81039;SDS011;70525;53.224;8.782;2023-06-14T13:24:11;6.30;;;2.40;;
81039;SDS011;70525;53.224;8.782;2023-06-14T13:26:38;5.03;;;2.83;;
81039;SDS011;70525;53.224;8.782;2023-06-14T13:29:04;14.45;;;2.85;;
81039;SDS011;70525;53.224;8.782;2023-06-14T13:31:31;6.97;;;2.40;;
81039;SDS011;70525;53.224;8.782;2023-06-14T13:33:57;8.60;;;2.67;;
81039;SDS011;70525;53.224;8.782;2023-06-14T13:36:24;4.20;;;2.03;;
81039;SDS011;70525;53.224;8.782;2023-06-14T13:38:50;4.00;;;2.45;;
81039;SDS011;70525;53.224;8.782;2023-06-14T13:41:18;4.95;;;2.42;;
81039;SDS011;70525;53.224;8.782;2023-06-14T13:43:45;5.55;;;2.72;;
81039;SDS011;70525;53.224;8.782;2023-06-14T13:46:11;4.22;;;2.00;;
81039;SDS011;70525;53.224;8.782;2023-06-14T13:48:55;3.58;;;2.05;;
81039;SDS011;70525;53.224;8.782;2023-06-14T13:51:39;4.53;;;2.28;;
81039;SDS011;70525;53.224;8.782;2023-06-14T13:54:23;3.42;;;2.00;;
81039;SDS011;70525;53.224;8.782;2023-06-14T13:57:08;3.13;;;1.95;;
81039;SDS011;70525;53.224;8.782;2023-06-14T13:59:52;5.20;;;2.55;;
81039;SDS011;70525;53.224;8.782;2023-06-14T14:02:39;6.50;;;2.10;;
81039;SDS011;70525;53.224;8.782;2023-06-14T14:05:23;3.72;;;2.20;;
81039;SDS011;70525;53.224;8.782;2023-06-14T14:08:12;6.22;;;2.63;;
81039;SDS011;70525;53.224;8.782;2023-06-14T14:10:56;3.78;;;2.55;;
81039;SDS011;70525;53.224;8.782;2023-06-14T14:13:40;4.07;;;2.47;;
81039;SDS011;70525;53.224;8.782;2023-06-14T14:16:26;3.08;;;2.15;;
81039;SDS011;70525;53.224;8.782;2023-06-14T14:19:10;5.30;;;2.38;;
81039;SDS011;70525;53.224;8.782;2023-06-14T14:21:54;5.10;;;2.45;;
81039;SDS011;70525;53.224;8.782;2023-06-14T14:24:38;2.83;;;2.30;;
81039;SDS011;70525;53.224;8.782;2023-06-14T14:27:22;5.70;;;2.45;;
81039;SDS011;70525;53.224;8.782;2023-06-14T14:30:06;3.55;;;2.45;;
81039;SDS011;70525;53.224;8.782;2023-06-14T14:32:33;5.88;;;2.42;;
81039;SDS011;70525;53.224;8.782;2023-06-14T14:34:59;4.38;;;2.40;;
81039;SDS011;70525;53.224;8.782;2023-06-14T14:37:26;4.60;;;2.42;;
81039;SDS011;70525;53.224;8.782;2023-06-14T14:39:52;6.30;;;2.90;;
81039;SDS011;70525;53.224;8.782;2023-06-14T14:42:19;7.03;;;2.70;;
81039;SDS011;70525;53.224;8.782;2023-06-14T14:44:46;3.85;;;2.60;;
81039;SDS011;70525;53.224;8.782;2023-06-14T14:47:12;3.53;;;2.30;;
81039;SDS011;70525;53.224;8.782;2023-06-14T14:49:39;4.53;;;2.35;;
81039;SDS011;70525;53.224;8.782;2023-06-14T14:52:06;4.82;;;2.22;;
81039;SDS011;70525;53.224;8.782;2023-06-14T14:54:48;5.68;;;2.20;;
81039;SDS011;70525;53.224;8.782;2023-06-14T14:57:14;3.10;;;2.20;;
81039;SDS011;70525;53.224;8.782;2023-06-14T14:59:41;4.03;;;2.53;;
81039;SDS011;70525;53.224;8.782;2023-06-14T15:02:07;3.33;;;2.20;;
81039;SDS011;70525;53.224;8.782;2023-06-14T15:04:34;7.15;;;2.30;;
81039;SDS011;70525;53.224;8.782;2023-06-14T15:07:00;5.30;;;2.47;;
81039;SDS011;70525;53.224;8.782;2023-06-14T15:09:27;4.65;;;2.47;;
81039;SDS011;70525;53.224;8.782;2023-06-14T15:11:53;5.53;;;2.60;;
81039;SDS011;70525;53.224;8.782;2023-06-14T15:14:20;4.25;;;2.30;;
81039;SDS011;70525;53.224;8.782;2023-06-14T15:16:46;6.25;;;2.20;;
81039;SDS011;70525;53.224;8.782;2023-06-14T15:19:13;3.08;;;2.42;;
81039;SDS011;70525;53.224;8.782;2023-06-14T15:21:39;4.03;;;2.63;;
81039;SDS011;70525;53.224;8.782;2023-06-14T15:24:06;4.75;;;2.78;;
81039;SDS011;70525;53.224;8.782;2023-06-14T15:26:33;5.53;;;2.45;;